sensor_id;sensor_type;location;lat;lon;timestamp;P1;durP1;ratioP1;P2;durP2;ratioP2
61905;SDS011;47863;55.766;37.672;2023-02-04T00:01:39;4.55;;;1.95;;
61905;SDS011;47863;55.766;37.672;2023-02-04T00:04:05;4.00;;;1.67;;
61905;SDS011;47863;55.766;37.672;2023-02-04T00:06:30;5.47;;;2.67;;
61905;SDS011;47863;55.766;37.672;2023-02-04T00:08:56;5.25;;;2.40;;
61905;SDS011;47863;55.766;37.672;2023-02-04T00:11:22;5.15;;;2.20;;
61905;SDS011;47863;55.766;37.672;2023-02-04T00:13:47;5.30;;;2.30;;
61905;SDS011;47863;55.766;37.672;2023-02-04T00:16:12;3.00;;;1.73;;
61905;SDS011;47863;55.766;37.672;2023-02-04T00:18:38;3.22;;;1.40;;
61905;SDS011;47863;55.766;37.672;2023-02-04T00:21:04;5.88;;;2.50;;
61905;SDS011;47863;55.766;37.672;2023-02-04T00:23:29;4.10;;;2.03;;
61905;SDS011;47863;55.766;37.672;2023-02-04T00:25:55;3.63;;;1.73;;
61905;SDS011;47863;55.766;37.672;2023-02-04T00:28:20;4.20;;;2.10;;
61905;SDS011;47863;55.766;37.672;2023-02-04T00:30:46;5.78;;;2.22;;
61905;SDS011;47863;55.766;37.672;2023-02-04T00:33:12;4.25;;;2.25;;
61905;SDS011;47863;55.766;37.672;2023-02-04T00:35:37;5.05;;;2.58;;
61905;SDS011;47863;55.766;37.672;2023-02-04T00:38:04;5.93;;;2.90;;
61905;SDS011;47863;55.766;37.672;2023-02-04T00:40:30;5.13;;;2.80;;
61905;SDS011;47863;55.766;37.672;2023-02-04T00:42:56;6.00;;;2.95;;
61905;SDS011;47863;55.766;37.672;2023-02-04T00:45:21;5.68;;;2.90;;
61905;SDS011;47863;55.766;37.672;2023-02-04T00:47:47;4.22;;;1.77;;
61905;SDS011;47863;55.766;37.672;2023-02-04T00:50:13;3.58;;;2.47;;
61905;SDS011;47863;55.766;37.672;2023-02-04T00:52:38;4.50;;;1.92;;
61905;SDS011;47863;55.766;37.672;2023-02-04T00:55:04;5.15;;;2.55;;
61905;SDS011;47863;55.766;37.672;2023-02-04T00:57:31;6.45;;;2.85;;
61905;SDS011;47863;55.766;37.672;2023-02-04T00:59:57;7.13;;;2.63;;
61905;SDS011;47863;55.766;37.672;2023-02-04T01:02:23;4.40;;;1.98;;
61905;SDS011;47863;55.766;37.672;2023-02-04T01:04:48;5.63;;;2.08;;
61905;SDS011;47863;55.766;37.672;2023-02-04T01:07:14;6.22;;;2.72;;
61905;SDS011;47863;55.766;37.672;2023-02-04T01:09:39;2.55;;;1.50;;
61905;SDS011;47863;55.766;37.672;2023-02-04T01:12:05;4.88;;;1.80;;
61905;SDS011;47863;55.766;37.672;2023-02-04T01:14:31;3.97;;;1.73;;
61905;SDS011;47863;55.766;37.672;2023-02-04T01:16:56;3.67;;;1.45;;
61905;SDS011;47863;55.766;37.672;2023-02-04T01:19:22;4.47;;;2.03;;
61905;SDS011;47863;55.766;37.672;2023-02-04T01:21:47;4.82;;;1.98;;
61905;SDS011;47863;55.766;37.672;2023-02-04T01:24:13;6.05;;;2.75;;
61905;SDS011;47863;55.766;37.672;2023-02-04T01:26:38;4.95;;;2.35;;
61905;SDS011;47863;55.766;37.672;2023-02-04T01:29:04;4.70;;;2.20;;
61905;SDS011;47863;55.766;37.672;2023-02-04T01:31:30;5.18;;;2.40;;
61905;SDS011;47863;55.766;37.672;2023-02-04T01:33:58;4.43;;;2.05;;
61905;SDS011;47863;55.766;37.672;2023-02-04T01:36:25;2.83;;;1.15;;
61905;SDS011;47863;55.766;37.672;2023-02-04T01:38:51;6.28;;;3.40;;
61905;SDS011;47863;55.766;37.672;2023-02-04T01:41:17;4.30;;;2.00;;
61905;SDS011;47863;55.766;37.672;2023-02-04T01:43:43;5.05;;;1.80;;
61905;SDS011;47863;55.766;37.672;2023-02-04T01:46:10;5.03;;;1.85;;
61905;SDS011;47863;55.766;37.672;2023-02-04T01:48:35;4.65;;;2.60;;
61905;SDS011;47863;55.766;37.672;2023-02-04T01:51:03;6.20;;;2.53;;
61905;SDS011;47863;55.766;37.672;2023-02-04T01:53:31;4.50;;;2.00;;
61905;SDS011;47863;55.766;37.672;2023-02-04T01:55:58;5.70;;;2.72;;
61905;SDS011;47863;55.766;37.672;2023-02-04T01:58:24;4.63;;;2.80;;
61905;SDS011;47863;55.766;37.672;2023-02-04T02:00:49;8.60;;;4.63;;
61905;SDS011;47863;55.766;37.672;2023-02-04T02:03:15;8.13;;;3.65;;
61905;SDS011;47863;55.766;37.672;2023-02-04T02:08:12;7.28;;;3.47;;
61905;SDS011;47863;55.766;37.672;2023-02-04T02:10:39;6.57;;;2.92;;
61905;SDS011;47863;55.766;37.672;2023-02-04T02:13:10;6.10;;;2.72;;
61905;SDS011;47863;55.766;37.672;2023-02-04T02:15:38;7.07;;;3.47;;
61905;SDS011;47863;55.766;37.672;2023-02-04T02:18:03;6.32;;;2.95;;
61905;SDS011;47863;55.766;37.672;2023-02-04T02:20:29;5.82;;;2.90;;
61905;SDS011;47863;55.766;37.672;2023-02-04T02:25:42;7.30;;;3.45;;
61905;SDS011;47863;55.766;37.672;2023-02-04T02:28:13;5.30;;;2.15;;
61905;SDS011;47863;55.766;37.672;2023-02-04T02:30:41;8.43;;;3.60;;
61905;SDS011;47863;55.766;37.672;2023-02-04T02:33:09;6.50;;;3.10;;
61905;SDS011;47863;55.766;37.672;2023-02-04T02:35:40;5.20;;;2.42;;
61905;SDS011;47863;55.766;37.672;2023-02-04T02:38:12;7.95;;;3.28;;
61905;SDS011;47863;55.766;37.672;2023-02-04T02:40:38;6.15;;;2.95;;
61905;SDS011;47863;55.766;37.672;2023-02-04T02:43:03;5.35;;;2.30;;
61905;SDS011;47863;55.766;37.672;2023-02-04T02:45:30;4.75;;;2.60;;
61905;SDS011;47863;55.766;37.672;2023-02-04T02:47:58;4.88;;;2.30;;
61905;SDS011;47863;55.766;37.672;2023-02-04T02:50:26;6.20;;;2.65;;
61905;SDS011;47863;55.766;37.672;2023-02-04T02:52:55;3.65;;;1.70;;
61905;SDS011;47863;55.766;37.672;2023-02-04T02:55:22;6.18;;;2.90;;
61905;SDS011;47863;55.766;37.672;2023-02-04T02:57:50;5.50;;;2.70;;
61905;SDS011;47863;55.766;37.672;2023-02-04T03:02:44;7.38;;;3.35;;
61905;SDS011;47863;55.766;37.672;2023-02-04T03:05:20;8.20;;;3.75;;
61905;SDS011;47863;55.766;37.672;2023-02-04T03:07:46;5.72;;;2.40;;
61905;SDS011;47863;55.766;37.672;2023-02-04T03:10:12;7.90;;;4.28;;
61905;SDS011;47863;55.766;37.672;2023-02-04T03:12:38;9.45;;;3.50;;
61905;SDS011;47863;55.766;37.672;2023-02-04T03:15:04;10.10;;;5.05;;
61905;SDS011;47863;55.766;37.672;2023-02-04T03:17:30;10.43;;;5.93;;
61905;SDS011;47863;55.766;37.672;2023-02-04T03:19:56;9.88;;;3.72;;
61905;SDS011;47863;55.766;37.672;2023-02-04T03:22:22;6.05;;;3.08;;
61905;SDS011;47863;55.766;37.672;2023-02-04T03:24:48;9.48;;;5.10;;
61905;SDS011;47863;55.766;37.672;2023-02-04T03:27:14;9.23;;;5.32;;
61905;SDS011;47863;55.766;37.672;2023-02-04T03:29:41;11.65;;;5.50;;
61905;SDS011;47863;55.766;37.672;2023-02-04T03:32:08;8.85;;;3.60;;
61905;SDS011;47863;55.766;37.672;2023-02-04T03:34:34;6.03;;;3.28;;
61905;SDS011;47863;55.766;37.672;2023-02-04T03:36:59;7.32;;;3.45;;
61905;SDS011;47863;55.766;37.672;2023-02-04T03:39:25;6.65;;;3.03;;
61905;SDS011;47863;55.766;37.672;2023-02-04T03:41:50;7.85;;;3.17;;
61905;SDS011;47863;55.766;37.672;2023-02-04T03:44:16;6.78;;;3.13;;
61905;SDS011;47863;55.766;37.672;2023-02-04T03:46:42;6.45;;;2.97;;
61905;SDS011;47863;55.766;37.672;2023-02-04T03:49:08;4.18;;;2.47;;
61905;SDS011;47863;55.766;37.672;2023-02-04T03:51:34;8.48;;;4.10;;
61905;SDS011;47863;55.766;37.672;2023-02-04T03:53:59;5.32;;;2.58;;
61905;SDS011;47863;55.766;37.672;2023-02-04T03:56:25;6.40;;;3.10;;
61905;SDS011;47863;55.766;37.672;2023-02-04T03:58:50;5.85;;;2.40;;
61905;SDS011;47863;55.766;37.672;2023-02-04T04:01:16;7.13;;;3.17;;
61905;SDS011;47863;55.766;37.672;2023-02-04T04:03:41;6.75;;;2.78;;
61905;SDS011;47863;55.766;37.672;2023-02-04T04:06:07;6.55;;;2.72;;
61905;SDS011;47863;55.766;37.672;2023-02-04T04:08:34;5.35;;;2.50;;
61905;SDS011;47863;55.766;37.672;2023-02-04T04:11:00;4.82;;;2.05;;
61905;SDS011;47863;55.766;37.672;2023-02-04T04:13:25;10.00;;;4.47;;
61905;SDS011;47863;55.766;37.672;2023-02-04T04:15:51;10.20;;;4.13;;
61905;SDS011;47863;55.766;37.672;2023-02-04T04:18:16;6.90;;;3.13;;
61905;SDS011;47863;55.766;37.672;2023-02-04T04:20:42;4.20;;;2.28;;
61905;SDS011;47863;55.766;37.672;2023-02-04T04:23:08;4.43;;;2.05;;
61905;SDS011;47863;55.766;37.672;2023-02-04T04:25:33;8.98;;;4.00;;
61905;SDS011;47863;55.766;37.672;2023-02-04T04:27:58;6.65;;;2.72;;
61905;SDS011;47863;55.766;37.672;2023-02-04T04:30:24;4.78;;;2.45;;
61905;SDS011;47863;55.766;37.672;2023-02-04T04:32:49;7.63;;;2.75;;
61905;SDS011;47863;55.766;37.672;2023-02-04T04:35:15;5.18;;;2.65;;
61905;SDS011;47863;55.766;37.672;2023-02-04T04:37:41;6.72;;;3.00;;
61905;SDS011;47863;55.766;37.672;2023-02-04T04:40:07;6.45;;;3.08;;
61905;SDS011;47863;55.766;37.672;2023-02-04T04:42:35;6.38;;;3.03;;
61905;SDS011;47863;55.766;37.672;2023-02-04T04:45:01;5.82;;;2.42;;
61905;SDS011;47863;55.766;37.672;2023-02-04T04:47:29;5.85;;;2.28;;
61905;SDS011;47863;55.766;37.672;2023-02-04T04:49:54;5.85;;;2.80;;
61905;SDS011;47863;55.766;37.672;2023-02-04T04:52:20;5.88;;;3.05;;
61905;SDS011;47863;55.766;37.672;2023-02-04T04:54:45;6.00;;;2.53;;
61905;SDS011;47863;55.766;37.672;2023-02-04T04:57:11;6.43;;;2.72;;
61905;SDS011;47863;55.766;37.672;2023-02-04T04:59:36;6.18;;;2.08;;
61905;SDS011;47863;55.766;37.672;2023-02-04T05:02:02;4.55;;;2.10;;
61905;SDS011;47863;55.766;37.672;2023-02-04T05:04:27;6.30;;;2.72;;
61905;SDS011;47863;55.766;37.672;2023-02-04T05:06:53;4.78;;;2.22;;
61905;SDS011;47863;55.766;37.672;2023-02-04T05:09:18;5.90;;;2.60;;
61905;SDS011;47863;55.766;37.672;2023-02-04T05:11:44;6.25;;;2.88;;
61905;SDS011;47863;55.766;37.672;2023-02-04T05:14:09;25.08;;;7.35;;
61905;SDS011;47863;55.766;37.672;2023-02-04T05:16:35;28.52;;;9.60;;
61905;SDS011;47863;55.766;37.672;2023-02-04T05:19:00;6.63;;;3.45;;
61905;SDS011;47863;55.766;37.672;2023-02-04T05:21:26;8.93;;;3.65;;
61905;SDS011;47863;55.766;37.672;2023-02-04T05:23:52;8.18;;;3.25;;
61905;SDS011;47863;55.766;37.672;2023-02-04T05:26:17;6.22;;;2.78;;
61905;SDS011;47863;55.766;37.672;2023-02-04T05:28:43;4.63;;;2.38;;
61905;SDS011;47863;55.766;37.672;2023-02-04T05:31:08;8.50;;;2.97;;
61905;SDS011;47863;55.766;37.672;2023-02-04T05:33:34;10.50;;;4.40;;
61905;SDS011;47863;55.766;37.672;2023-02-04T05:35:59;6.43;;;3.08;;
61905;SDS011;47863;55.766;37.672;2023-02-04T05:38:25;6.45;;;2.55;;
61905;SDS011;47863;55.766;37.672;2023-02-04T05:40:51;4.82;;;2.00;;
61905;SDS011;47863;55.766;37.672;2023-02-04T05:43:16;6.32;;;2.70;;
61905;SDS011;47863;55.766;37.672;2023-02-04T05:45:42;4.10;;;1.77;;
61905;SDS011;47863;55.766;37.672;2023-02-04T05:48:08;7.85;;;3.17;;
61905;SDS011;47863;55.766;37.672;2023-02-04T05:50:33;6.28;;;3.22;;
61905;SDS011;47863;55.766;37.672;2023-02-04T05:52:59;3.92;;;2.28;;
61905;SDS011;47863;55.766;37.672;2023-02-04T05:55:24;14.30;;;4.55;;
61905;SDS011;47863;55.766;37.672;2023-02-04T05:57:51;10.88;;;4.57;;
61905;SDS011;47863;55.766;37.672;2023-02-04T06:00:17;6.68;;;3.47;;
61905;SDS011;47863;55.766;37.672;2023-02-04T06:02:43;5.13;;;2.47;;
61905;SDS011;47863;55.766;37.672;2023-02-04T06:05:08;8.27;;;3.97;;
61905;SDS011;47863;55.766;37.672;2023-02-04T06:07:34;6.45;;;3.05;;
61905;SDS011;47863;55.766;37.672;2023-02-04T06:09:59;12.32;;;5.10;;
61905;SDS011;47863;55.766;37.672;2023-02-04T06:12:25;9.75;;;4.63;;
61905;SDS011;47863;55.766;37.672;2023-02-04T06:14:50;8.90;;;3.30;;
61905;SDS011;47863;55.766;37.672;2023-02-04T06:17:16;9.05;;;4.10;;
61905;SDS011;47863;55.766;37.672;2023-02-04T06:19:42;9.13;;;3.92;;
61905;SDS011;47863;55.766;37.672;2023-02-04T06:22:07;5.55;;;2.15;;
61905;SDS011;47863;55.766;37.672;2023-02-04T06:24:33;6.95;;;3.40;;
61905;SDS011;47863;55.766;37.672;2023-02-04T06:26:59;7.43;;;2.90;;
61905;SDS011;47863;55.766;37.672;2023-02-04T06:29:24;6.25;;;3.03;;
61905;SDS011;47863;55.766;37.672;2023-02-04T06:31:50;9.30;;;4.65;;
61905;SDS011;47863;55.766;37.672;2023-02-04T06:34:15;5.57;;;3.00;;
61905;SDS011;47863;55.766;37.672;2023-02-04T06:36:41;6.25;;;2.88;;
61905;SDS011;47863;55.766;37.672;2023-02-04T06:39:06;9.38;;;4.32;;
61905;SDS011;47863;55.766;37.672;2023-02-04T06:41:32;7.90;;;3.10;;
61905;SDS011;47863;55.766;37.672;2023-02-04T06:43:57;6.55;;;2.90;;
61905;SDS011;47863;55.766;37.672;2023-02-04T06:46:23;5.72;;;2.88;;
61905;SDS011;47863;55.766;37.672;2023-02-04T06:48:48;5.28;;;2.10;;
61905;SDS011;47863;55.766;37.672;2023-02-04T06:51:14;6.43;;;2.70;;
61905;SDS011;47863;55.766;37.672;2023-02-04T06:53:39;4.93;;;2.20;;
61905;SDS011;47863;55.766;37.672;2023-02-04T06:56:08;5.22;;;2.50;;
61905;SDS011;47863;55.766;37.672;2023-02-04T06:58:34;10.05;;;4.22;;
61905;SDS011;47863;55.766;37.672;2023-02-04T07:01:00;11.18;;;5.00;;
61905;SDS011;47863;55.766;37.672;2023-02-04T07:03:25;6.95;;;2.78;;
61905;SDS011;47863;55.766;37.672;2023-02-04T07:05:51;7.22;;;3.10;;
61905;SDS011;47863;55.766;37.672;2023-02-04T07:08:18;5.22;;;1.90;;
61905;SDS011;47863;55.766;37.672;2023-02-04T07:10:46;6.57;;;2.97;;
61905;SDS011;47863;55.766;37.672;2023-02-04T07:13:12;5.13;;;2.50;;
61905;SDS011;47863;55.766;37.672;2023-02-04T07:15:37;7.47;;;3.33;;
61905;SDS011;47863;55.766;37.672;2023-02-04T07:18:03;4.03;;;2.00;;
61905;SDS011;47863;55.766;37.672;2023-02-04T07:20:28;8.80;;;3.65;;
61905;SDS011;47863;55.766;37.672;2023-02-04T07:22:54;6.00;;;2.38;;
61905;SDS011;47863;55.766;37.672;2023-02-04T07:25:19;8.98;;;3.35;;
61905;SDS011;47863;55.766;37.672;2023-02-04T07:27:45;4.45;;;2.25;;
61905;SDS011;47863;55.766;37.672;2023-02-04T07:30:10;5.30;;;1.92;;
61905;SDS011;47863;55.766;37.672;2023-02-04T07:32:36;4.13;;;1.90;;
61905;SDS011;47863;55.766;37.672;2023-02-04T07:35:02;5.03;;;2.28;;
61905;SDS011;47863;55.766;37.672;2023-02-04T07:37:28;7.05;;;2.78;;
61905;SDS011;47863;55.766;37.672;2023-02-04T07:39:54;6.18;;;3.22;;
61905;SDS011;47863;55.766;37.672;2023-02-04T07:42:19;5.53;;;2.38;;
61905;SDS011;47863;55.766;37.672;2023-02-04T07:44:45;6.57;;;3.20;;
61905;SDS011;47863;55.766;37.672;2023-02-04T07:47:10;4.28;;;2.00;;
61905;SDS011;47863;55.766;37.672;2023-02-04T07:49:36;3.60;;;1.77;;
61905;SDS011;47863;55.766;37.672;2023-02-04T07:52:02;9.38;;;3.22;;
61905;SDS011;47863;55.766;37.672;2023-02-04T07:54:28;6.75;;;3.28;;
61905;SDS011;47863;55.766;37.672;2023-02-04T07:56:54;5.50;;;2.30;;
61905;SDS011;47863;55.766;37.672;2023-02-04T07:59:19;6.38;;;2.72;;
61905;SDS011;47863;55.766;37.672;2023-02-04T08:01:45;7.40;;;3.67;;
61905;SDS011;47863;55.766;37.672;2023-02-04T08:04:12;7.43;;;3.03;;
61905;SDS011;47863;55.766;37.672;2023-02-04T08:06:37;6.43;;;2.90;;
61905;SDS011;47863;55.766;37.672;2023-02-04T08:09:03;6.03;;;3.00;;
61905;SDS011;47863;55.766;37.672;2023-02-04T08:11:29;5.97;;;2.80;;
61905;SDS011;47863;55.766;37.672;2023-02-04T08:13:55;4.45;;;2.28;;
61905;SDS011;47863;55.766;37.672;2023-02-04T08:16:21;6.75;;;3.50;;
61905;SDS011;47863;55.766;37.672;2023-02-04T08:18:46;8.43;;;3.60;;
61905;SDS011;47863;55.766;37.672;2023-02-04T08:21:12;3.42;;;1.88;;
61905;SDS011;47863;55.766;37.672;2023-02-04T08:23:37;4.07;;;2.28;;
61905;SDS011;47863;55.766;37.672;2023-02-04T08:26:07;5.75;;;2.58;;
61905;SDS011;47863;55.766;37.672;2023-02-04T08:28:35;5.05;;;2.17;;
61905;SDS011;47863;55.766;37.672;2023-02-04T08:31:02;6.75;;;2.80;;
61905;SDS011;47863;55.766;37.672;2023-02-04T08:33:29;8.48;;;3.00;;
61905;SDS011;47863;55.766;37.672;2023-02-04T08:35:54;13.60;;;5.10;;
61905;SDS011;47863;55.766;37.672;2023-02-04T08:38:20;7.75;;;3.28;;
61905;SDS011;47863;55.766;37.672;2023-02-04T08:40:45;6.00;;;2.53;;
61905;SDS011;47863;55.766;37.672;2023-02-04T08:43:11;5.15;;;2.10;;
61905;SDS011;47863;55.766;37.672;2023-02-04T08:45:37;12.43;;;4.63;;
61905;SDS011;47863;55.766;37.672;2023-02-04T08:48:02;6.28;;;2.97;;
61905;SDS011;47863;55.766;37.672;2023-02-04T08:50:28;8.20;;;3.20;;
61905;SDS011;47863;55.766;37.672;2023-02-04T08:52:55;7.20;;;2.90;;
61905;SDS011;47863;55.766;37.672;2023-02-04T08:55:20;6.65;;;3.55;;
61905;SDS011;47863;55.766;37.672;2023-02-04T08:57:46;6.20;;;2.90;;
61905;SDS011;47863;55.766;37.672;2023-02-04T09:00:12;3.90;;;2.30;;
61905;SDS011;47863;55.766;37.672;2023-02-04T09:02:38;5.50;;;2.60;;
61905;SDS011;47863;55.766;37.672;2023-02-04T09:05:03;8.77;;;3.50;;
61905;SDS011;47863;55.766;37.672;2023-02-04T09:07:29;5.88;;;2.35;;
61905;SDS011;47863;55.766;37.672;2023-02-04T09:09:55;6.50;;;3.60;;
61905;SDS011;47863;55.766;37.672;2023-02-04T09:12:20;7.25;;;3.25;;
61905;SDS011;47863;55.766;37.672;2023-02-04T09:14:46;9.80;;;3.90;;
61905;SDS011;47863;55.766;37.672;2023-02-04T09:17:12;9.93;;;3.40;;
61905;SDS011;47863;55.766;37.672;2023-02-04T09:19:37;9.50;;;3.75;;
61905;SDS011;47863;55.766;37.672;2023-02-04T09:22:03;4.45;;;2.28;;
61905;SDS011;47863;55.766;37.672;2023-02-04T09:24:28;7.63;;;3.75;;
61905;SDS011;47863;55.766;37.672;2023-02-04T09:26:54;11.75;;;4.43;;
61905;SDS011;47863;55.766;37.672;2023-02-04T09:29:19;4.80;;;2.45;;
61905;SDS011;47863;55.766;37.672;2023-02-04T09:31:45;5.65;;;2.55;;
61905;SDS011;47863;55.766;37.672;2023-02-04T09:34:10;7.15;;;2.85;;
61905;SDS011;47863;55.766;37.672;2023-02-04T09:36:36;5.05;;;2.05;;
61905;SDS011;47863;55.766;37.672;2023-02-04T09:39:04;4.75;;;2.53;;
61905;SDS011;47863;55.766;37.672;2023-02-04T09:41:30;8.25;;;2.50;;
61905;SDS011;47863;55.766;37.672;2023-02-04T09:43:58;7.95;;;3.30;;
61905;SDS011;47863;55.766;37.672;2023-02-04T09:46:24;4.68;;;2.20;;
61905;SDS011;47863;55.766;37.672;2023-02-04T09:48:54;4.82;;;2.38;;
61905;SDS011;47863;55.766;37.672;2023-02-04T09:51:28;6.60;;;3.55;;
61905;SDS011;47863;55.766;37.672;2023-02-04T09:54:13;4.95;;;2.42;;
61905;SDS011;47863;55.766;37.672;2023-02-04T09:56:41;10.98;;;3.17;;
61905;SDS011;47863;55.766;37.672;2023-02-04T09:59:20;6.55;;;3.30;;
61905;SDS011;47863;55.766;37.672;2023-02-04T10:01:51;6.40;;;2.30;;
61905;SDS011;47863;55.766;37.672;2023-02-04T10:04:21;4.60;;;2.05;;
61905;SDS011;47863;55.766;37.672;2023-02-04T10:06:48;7.18;;;3.38;;
61905;SDS011;47863;55.766;37.672;2023-02-04T10:09:14;5.38;;;2.45;;
61905;SDS011;47863;55.766;37.672;2023-02-04T10:11:40;6.45;;;2.42;;
61905;SDS011;47863;55.766;37.672;2023-02-04T10:14:09;5.53;;;2.63;;
61905;SDS011;47863;55.766;37.672;2023-02-04T10:16:38;8.63;;;3.00;;
61905;SDS011;47863;55.766;37.672;2023-02-04T10:19:10;10.23;;;3.92;;
61905;SDS011;47863;55.766;37.672;2023-02-04T10:21:39;7.35;;;2.95;;
61905;SDS011;47863;55.766;37.672;2023-02-04T10:24:09;7.78;;;3.30;;
61905;SDS011;47863;55.766;37.672;2023-02-04T10:26:45;8.30;;;3.78;;
61905;SDS011;47863;55.766;37.672;2023-02-04T10:29:21;8.55;;;4.30;;
61905;SDS011;47863;55.766;37.672;2023-02-04T10:31:50;8.95;;;4.05;;
61905;SDS011;47863;55.766;37.672;2023-02-04T10:36:49;13.80;;;4.97;;
61905;SDS011;47863;55.766;37.672;2023-02-04T10:41:55;8.73;;;3.78;;
61905;SDS011;47863;55.766;37.672;2023-02-04T10:47:15;9.05;;;3.83;;
61905;SDS011;47863;55.766;37.672;2023-02-04T10:49:59;8.25;;;3.65;;
61905;SDS011;47863;55.766;37.672;2023-02-04T10:52:33;6.25;;;2.92;;
61905;SDS011;47863;55.766;37.672;2023-02-04T10:55:02;19.83;;;7.30;;
61905;SDS011;47863;55.766;37.672;2023-02-04T10:57:29;11.18;;;5.38;;
61905;SDS011;47863;55.766;37.672;2023-02-04T11:00:00;10.82;;;4.82;;
61905;SDS011;47863;55.766;37.672;2023-02-04T11:02:31;8.93;;;4.53;;
61905;SDS011;47863;55.766;37.672;2023-02-04T11:04:57;9.90;;;4.93;;
61905;SDS011;47863;55.766;37.672;2023-02-04T11:07:23;11.50;;;5.53;;
61905;SDS011;47863;55.766;37.672;2023-02-04T11:09:49;10.18;;;5.88;;
61905;SDS011;47863;55.766;37.672;2023-02-04T11:12:19;11.90;;;4.80;;
61905;SDS011;47863;55.766;37.672;2023-02-04T11:14:54;8.98;;;4.50;;
61905;SDS011;47863;55.766;37.672;2023-02-04T11:17:27;12.18;;;5.40;;
61905;SDS011;47863;55.766;37.672;2023-02-04T11:19:55;13.50;;;6.00;;
61905;SDS011;47863;55.766;37.672;2023-02-04T11:22:22;15.57;;;7.78;;
61905;SDS011;47863;55.766;37.672;2023-02-04T11:24:59;16.58;;;7.97;;
61905;SDS011;47863;55.766;37.672;2023-02-04T11:27:35;12.02;;;5.25;;
61905;SDS011;47863;55.766;37.672;2023-02-04T11:30:05;13.23;;;5.90;;
61905;SDS011;47863;55.766;37.672;2023-02-04T11:32:43;13.60;;;5.07;;
61905;SDS011;47863;55.766;37.672;2023-02-04T11:35:21;12.95;;;5.63;;
61905;SDS011;47863;55.766;37.672;2023-02-04T11:37:48;15.32;;;6.82;;
61905;SDS011;47863;55.766;37.672;2023-02-04T11:43:01;13.82;;;6.10;;
61905;SDS011;47863;55.766;37.672;2023-02-04T11:45:34;10.60;;;4.05;;
61905;SDS011;47863;55.766;37.672;2023-02-04T11:48:02;6.78;;;3.28;;
61905;SDS011;47863;55.766;37.672;2023-02-04T11:50:35;13.50;;;5.78;;
61905;SDS011;47863;55.766;37.672;2023-02-04T11:53:07;9.48;;;3.97;;
61905;SDS011;47863;55.766;37.672;2023-02-04T11:55:35;10.07;;;3.85;;
61905;SDS011;47863;55.766;37.672;2023-02-04T11:58:11;9.27;;;4.40;;
61905;SDS011;47863;55.766;37.672;2023-02-04T12:00:39;10.30;;;4.00;;
61905;SDS011;47863;55.766;37.672;2023-02-04T12:03:18;10.93;;;4.40;;
61905;SDS011;47863;55.766;37.672;2023-02-04T12:05:54;7.88;;;3.05;;
61905;SDS011;47863;55.766;37.672;2023-02-04T12:10:49;11.35;;;4.38;;
61905;SDS011;47863;55.766;37.672;2023-02-04T12:13:23;9.93;;;3.92;;
61905;SDS011;47863;55.766;37.672;2023-02-04T12:18:29;15.90;;;5.57;;
61905;SDS011;47863;55.766;37.672;2023-02-04T12:20:56;13.05;;;5.80;;
61905;SDS011;47863;55.766;37.672;2023-02-04T12:23:22;14.20;;;6.38;;
61905;SDS011;47863;55.766;37.672;2023-02-04T12:25:49;13.63;;;5.10;;
61905;SDS011;47863;55.766;37.672;2023-02-04T12:28:14;10.90;;;4.38;;
61905;SDS011;47863;55.766;37.672;2023-02-04T12:30:40;11.75;;;5.05;;
61905;SDS011;47863;55.766;37.672;2023-02-04T12:33:06;14.98;;;5.28;;
61905;SDS011;47863;55.766;37.672;2023-02-04T12:35:32;14.95;;;5.32;;
61905;SDS011;47863;55.766;37.672;2023-02-04T12:37:58;13.35;;;5.10;;
61905;SDS011;47863;55.766;37.672;2023-02-04T12:40:24;13.70;;;4.40;;
61905;SDS011;47863;55.766;37.672;2023-02-04T12:42:50;16.35;;;6.07;;
61905;SDS011;47863;55.766;37.672;2023-02-04T12:45:16;14.65;;;6.15;;
61905;SDS011;47863;55.766;37.672;2023-02-04T12:47:42;11.20;;;4.53;;
61905;SDS011;47863;55.766;37.672;2023-02-04T12:50:09;15.27;;;6.53;;
61905;SDS011;47863;55.766;37.672;2023-02-04T12:52:36;9.02;;;4.13;;
61905;SDS011;47863;55.766;37.672;2023-02-04T12:55:03;10.00;;;4.32;;
61905;SDS011;47863;55.766;37.672;2023-02-04T12:57:31;11.52;;;4.97;;
61905;SDS011;47863;55.766;37.672;2023-02-04T12:59:57;11.23;;;4.75;;
61905;SDS011;47863;55.766;37.672;2023-02-04T13:02:28;7.68;;;3.05;;
61905;SDS011;47863;55.766;37.672;2023-02-04T13:04:54;12.50;;;4.22;;
61905;SDS011;47863;55.766;37.672;2023-02-04T13:07:20;9.98;;;3.88;;
61905;SDS011;47863;55.766;37.672;2023-02-04T13:09:46;9.07;;;3.08;;
61905;SDS011;47863;55.766;37.672;2023-02-04T13:12:13;5.43;;;2.13;;
61905;SDS011;47863;55.766;37.672;2023-02-04T13:14:39;7.65;;;3.15;;
61905;SDS011;47863;55.766;37.672;2023-02-04T13:17:05;9.70;;;3.63;;
61905;SDS011;47863;55.766;37.672;2023-02-04T13:19:31;8.73;;;3.55;;
61905;SDS011;47863;55.766;37.672;2023-02-04T13:21:57;11.18;;;4.25;;
61905;SDS011;47863;55.766;37.672;2023-02-04T13:24:23;13.20;;;5.90;;
61905;SDS011;47863;55.766;37.672;2023-02-04T13:26:49;12.35;;;5.00;;
61905;SDS011;47863;55.766;37.672;2023-02-04T13:29:15;11.30;;;3.72;;
61905;SDS011;47863;55.766;37.672;2023-02-04T13:31:40;12.15;;;4.75;;
61905;SDS011;47863;55.766;37.672;2023-02-04T13:34:06;15.48;;;5.78;;
61905;SDS011;47863;55.766;37.672;2023-02-04T13:36:31;10.70;;;5.20;;
61905;SDS011;47863;55.766;37.672;2023-02-04T13:38:57;10.65;;;4.60;;
61905;SDS011;47863;55.766;37.672;2023-02-04T13:41:25;13.00;;;5.00;;
61905;SDS011;47863;55.766;37.672;2023-02-04T13:43:53;13.73;;;5.32;;
61905;SDS011;47863;55.766;37.672;2023-02-04T13:46:19;15.05;;;4.43;;
61905;SDS011;47863;55.766;37.672;2023-02-04T13:48:45;7.63;;;3.72;;
61905;SDS011;47863;55.766;37.672;2023-02-04T13:51:11;10.02;;;4.00;;
61905;SDS011;47863;55.766;37.672;2023-02-04T13:53:37;7.60;;;3.08;;
61905;SDS011;47863;55.766;37.672;2023-02-04T13:56:02;32.22;;;10.25;;
61905;SDS011;47863;55.766;37.672;2023-02-04T13:58:28;13.70;;;5.53;;
61905;SDS011;47863;55.766;37.672;2023-02-04T14:00:53;15.15;;;5.15;;
61905;SDS011;47863;55.766;37.672;2023-02-04T14:03:24;17.08;;;7.53;;
61905;SDS011;47863;55.766;37.672;2023-02-04T14:05:50;8.98;;;4.03;;
61905;SDS011;47863;55.766;37.672;2023-02-04T14:08:17;13.48;;;5.50;;
61905;SDS011;47863;55.766;37.672;2023-02-04T14:10:43;13.48;;;5.85;;
61905;SDS011;47863;55.766;37.672;2023-02-04T14:13:08;15.38;;;6.13;;
61905;SDS011;47863;55.766;37.672;2023-02-04T14:15:34;9.95;;;4.13;;
61905;SDS011;47863;55.766;37.672;2023-02-04T14:18:02;5.50;;;2.60;;
61905;SDS011;47863;55.766;37.672;2023-02-04T14:20:29;10.32;;;4.53;;
61905;SDS011;47863;55.766;37.672;2023-02-04T14:22:55;7.97;;;3.72;;
61905;SDS011;47863;55.766;37.672;2023-02-04T14:25:21;8.68;;;3.50;;
61905;SDS011;47863;55.766;37.672;2023-02-04T14:27:46;10.98;;;4.18;;
61905;SDS011;47863;55.766;37.672;2023-02-04T14:30:16;5.97;;;2.90;;
61905;SDS011;47863;55.766;37.672;2023-02-04T14:32:47;10.50;;;4.13;;
61905;SDS011;47863;55.766;37.672;2023-02-04T14:35:13;11.38;;;4.90;;
61905;SDS011;47863;55.766;37.672;2023-02-04T14:37:39;16.98;;;6.35;;
61905;SDS011;47863;55.766;37.672;2023-02-04T14:40:06;26.75;;;8.10;;
61905;SDS011;47863;55.766;37.672;2023-02-04T14:42:32;11.57;;;5.30;;
61905;SDS011;47863;55.766;37.672;2023-02-04T14:44:59;15.70;;;6.70;;
61905;SDS011;47863;55.766;37.672;2023-02-04T14:47:30;12.02;;;4.28;;
61905;SDS011;47863;55.766;37.672;2023-02-04T14:49:56;12.05;;;5.32;;
61905;SDS011;47863;55.766;37.672;2023-02-04T14:52:22;24.42;;;9.30;;